sensor_id;sensor_type;location;lat;lon;timestamp;P1;P2;P0
71794;PMS7003;59641;45.188;5.712;2024-02-21T00:02:07;9.50;9.00;7.00
71794;PMS7003;59641;45.188;5.712;2024-02-21T00:04:32;9.75;9.00;6.00
71794;PMS7003;59641;45.188;5.712;2024-02-21T00:06:58;8.00;7.75;6.50
71794;PMS7003;59641;45.188;5.712;2024-02-21T00:09:24;11.50;9.00;7.00
71794;PMS7003;59641;45.188;5.712;2024-02-21T00:11:49;8.75;8.25;7.00
71794;PMS7003;59641;45.188;5.712;2024-02-21T00:14:14;8.00;8.00;5.00
71794;PMS7003;59641;45.188;5.712;2024-02-21T00:16:40;7.50;7.00;5.75
71794;PMS7003;59641;45.188;5.712;2024-02-21T00:19:06;9.75;9.75;7.75
71794;PMS7003;59641;45.188;5.712;2024-02-21T00:21:31;9.75;9.75;8.00
71794;PMS7003;59641;45.188;5.712;2024-02-21T00:23:56;11.75;10.00;8.00
71794;PMS7003;59641;45.188;5.712;2024-02-21T00:26:22;10.25;9.25;7.00
71794;PMS7003;59641;45.188;5.712;2024-02-21T00:28:47;10.25;10.00;7.00
71794;PMS7003;59641;45.188;5.712;2024-02-21T00:31:13;10.75;10.25;7.75
71794;PMS7003;59641;45.188;5.712;2024-02-21T00:33:38;8.25;8.25;5.50
71794;PMS7003;59641;45.188;5.712;2024-02-21T00:36:03;11.25;11.25;8.75
71794;PMS7003;59641;45.188;5.712;2024-02-21T00:38:29;6.25;6.25;5.00
71794;PMS7003;59641;45.188;5.712;2024-02-21T00:40:54;10.75;9.00;7.75
71794;PMS7003;59641;45.188;5.712;2024-02-21T00:43:19;9.75;8.75;7.00
71794;PMS7003;59641;45.188;5.712;2024-02-21T00:45:48;10.80;10.40;7.80
71794;PMS7003;59641;45.188;5.712;2024-02-21T00:48:14;9.75;9.00;7.00
71794;PMS7003;59641;45.188;5.712;2024-02-21T00:50:39;10.75;9.50;6.75
71794;PMS7003;59641;45.188;5.712;2024-02-21T00:53:04;8.75;8.50;7.00
71794;PMS7003;59641;45.188;5.712;2024-02-21T00:55:30;11.00;9.00;8.00
71794;PMS7003;59641;45.188;5.712;2024-02-21T00:57:55;16.25;12.50;8.75
71794;PMS7003;59641;45.188;5.712;2024-02-21T01:00:20;12.25;11.50;10.00
71794;PMS7003;59641;45.188;5.712;2024-02-21T01:02:46;10.50;9.00;7.75
71794;PMS7003;59641;45.188;5.712;2024-02-21T01:05:11;10.50;10.50;8.00
71794;PMS7003;59641;45.188;5.712;2024-02-21T01:07:36;12.00;10.25;7.50
71794;PMS7003;59641;45.188;5.712;2024-02-21T01:10:02;10.50;10.00;6.50
71794;PMS7003;59641;45.188;5.712;2024-02-21T01:12:27;9.25;9.25;7.50
71794;PMS7003;59641;45.188;5.712;2024-02-21T01:14:53;8.25;8.25;6.50
71794;PMS7003;59641;45.188;5.712;2024-02-21T01:17:18;10.00;10.00;8.00
71794;PMS7003;59641;45.188;5.712;2024-02-21T01:19:45;9.25;8.25;7.00
71794;PMS7003;59641;45.188;5.712;2024-02-21T01:22:11;12.20;11.20;8.20
71794;PMS7003;59641;45.188;5.712;2024-02-21T01:24:36;14.00;9.00;7.25
71794;PMS7003;59641;45.188;5.712;2024-02-21T01:27:02;10.00;9.00;7.75
71794;PMS7003;59641;45.188;5.712;2024-02-21T01:29:28;11.75;11.00;7.75
71794;PMS7003;59641;45.188;5.712;2024-02-21T01:31:53;9.75;9.00;7.00
71794;PMS7003;59641;45.188;5.712;2024-02-21T01:34:18;12.25;9.00;8.00
71794;PMS7003;59641;45.188;5.712;2024-02-21T01:36:43;10.25;8.50;6.50
71794;PMS7003;59641;45.188;5.712;2024-02-21T01:39:09;9.50;8.50;6.00
71794;PMS7003;59641;45.188;5.712;2024-02-21T01:41:34;9.50;9.50;8.50
71794;PMS7003;59641;45.188;5.712;2024-02-21T01:43:59;10.50;10.50;9.75
71794;PMS7003;59641;45.188;5.712;2024-02-21T01:46:25;9.00;8.50;7.25
71794;PMS7003;59641;45.188;5.712;2024-02-21T01:48:55;8.00;7.50;5.00
71794;PMS7003;59641;45.188;5.712;2024-02-21T01:51:22;8.40;8.40;5.40
71794;PMS7003;59641;45.188;5.712;2024-02-21T01:53:48;10.25;8.25;6.50
71794;PMS7003;59641;45.188;5.712;2024-02-21T01:56:16;11.00;9.00;6.75
71794;PMS7003;59641;45.188;5.712;2024-02-21T01:58:42;8.75;7.75;6.25
71794;PMS7003;59641;45.188;5.712;2024-02-21T02:01:09;9.20;8.20;5.60
71794;PMS7003;59641;45.188;5.712;2024-02-21T02:03:35;8.60;8.00;6.40
71794;PMS7003;59641;45.188;5.712;2024-02-21T02:06:01;7.50;6.00;4.00
71794;PMS7003;59641;45.188;5.712;2024-02-21T02:08:27;6.00;6.00;4.25
71794;PMS7003;59641;45.188;5.712;2024-02-21T02:10:53;6.00;5.50;4.75
71794;PMS7003;59641;45.188;5.712;2024-02-21T02:13:18;6.25;6.00;5.00
71794;PMS7003;59641;45.188;5.712;2024-02-21T02:15:44;6.75;6.75;4.75
71794;PMS7003;59641;45.188;5.712;2024-02-21T02:18:11;8.20;6.80;5.00
71794;PMS7003;59641;45.188;5.712;2024-02-21T02:20:37;6.60;6.40;5.00
71794;PMS7003;59641;45.188;5.712;2024-02-21T02:25:50;9.00;8.00;6.75
71794;PMS7003;59641;45.188;5.712;2024-02-21T02:28:17;9.50;9.50;7.00
71794;PMS7003;59641;45.188;5.712;2024-02-21T02:30:43;12.60;9.40;5.00
71794;PMS7003;59641;45.188;5.712;2024-02-21T02:33:08;10.00;9.00;6.25
71794;PMS7003;59641;45.188;5.712;2024-02-21T02:35:34;7.00;7.00;6.00
71794;PMS7003;59641;45.188;5.712;2024-02-21T02:38:03;8.75;8.00;6.25
71794;PMS7003;59641;45.188;5.712;2024-02-21T02:40:29;9.00;8.00;7.00
71794;PMS7003;59641;45.188;5.712;2024-02-21T02:42:54;10.50;9.00;7.00
71794;PMS7003;59641;45.188;5.712;2024-02-21T02:45:20;8.75;8.00;6.00
71794;PMS7003;59641;45.188;5.712;2024-02-21T02:47:47;7.50;7.50;6.25
71794;PMS7003;59641;45.188;5.712;2024-02-21T02:50:13;9.75;9.75;6.50
71794;PMS7003;59641;45.188;5.712;2024-02-21T02:52:38;11.00;8.75;6.75
71794;PMS7003;59641;45.188;5.712;2024-02-21T02:55:04;7.00;7.00;6.50
71794;PMS7003;59641;45.188;5.712;2024-02-21T02:57:30;10.50;8.75;6.75
71794;PMS7003;59641;45.188;5.712;2024-02-21T02:59:56;9.00;9.00;7.50
71794;PMS7003;59641;45.188;5.712;2024-02-21T03:02:21;9.75;9.00;7.00
71794;PMS7003;59641;45.188;5.712;2024-02-21T03:04:47;7.25;7.00;6.00
71794;PMS7003;59641;45.188;5.712;2024-02-21T03:07:14;10.75;9.00;6.75
71794;PMS7003;59641;45.188;5.712;2024-02-21T03:09:40;7.25;7.25;5.75
71794;PMS7003;59641;45.188;5.712;2024-02-21T03:12:07;8.25;8.25;7.00
71794;PMS7003;59641;45.188;5.712;2024-02-21T03:14:33;9.75;8.25;5.75
71794;PMS7003;59641;45.188;5.712;2024-02-21T03:16:59;7.00;6.00;5.00
71794;PMS7003;59641;45.188;5.712;2024-02-21T03:19:24;6.00;6.00;5.00
71794;PMS7003;59641;45.188;5.712;2024-02-21T03:21:50;11.00;9.00;6.25
71794;PMS7003;59641;45.188;5.712;2024-02-21T03:24:16;7.50;7.50;6.00
71794;PMS7003;59641;45.188;5.712;2024-02-21T03:26:41;9.00;8.75;6.00
71794;PMS7003;59641;45.188;5.712;2024-02-21T03:29:07;11.50;8.50;6.00
71794;PMS7003;59641;45.188;5.712;2024-02-21T03:31:33;6.75;6.75;5.00
71794;PMS7003;59641;45.188;5.712;2024-02-21T03:33:59;8.25;8.25;7.00
71794;PMS7003;59641;45.188;5.712;2024-02-21T03:36:24;9.00;8.00;6.00
71794;PMS7003;59641;45.188;5.712;2024-02-21T03:38:49;9.75;9.50;8.00
71794;PMS7003;59641;45.188;5.712;2024-02-21T03:41:15;11.00;10.50;7.50
71794;PMS7003;59641;45.188;5.712;2024-02-21T03:43:40;9.75;9.00;7.00
71794;PMS7003;59641;45.188;5.712;2024-02-21T03:46:05;6.00;6.00;6.00
71794;PMS7003;59641;45.188;5.712;2024-02-21T03:48:32;10.50;8.75;7.00
71794;PMS7003;59641;45.188;5.712;2024-02-21T03:50:57;7.75;7.75;6.00
71794;PMS7003;59641;45.188;5.712;2024-02-21T03:53:23;7.25;7.25;6.00
71794;PMS7003;59641;45.188;5.712;2024-02-21T03:55:48;7.75;7.00;6.00
71794;PMS7003;59641;45.188;5.712;2024-02-21T03:58:14;8.00;7.00;6.00
71794;PMS7003;59641;45.188;5.712;2024-02-21T04:00:39;8.25;8.25;6.00
71794;PMS7003;59641;45.188;5.712;2024-02-21T04:03:04;6.25;6.00;4.00
71794;PMS7003;59641;45.188;5.712;2024-02-21T04:05:30;8.25;8.25;7.00
71794;PMS7003;59641;45.188;5.712;2024-02-21T04:07:56;8.50;8.00;6.00
71794;PMS7003;59641;45.188;5.712;2024-02-21T04:10:21;8.00;8.00;6.00
71794;PMS7003;59641;45.188;5.712;2024-02-21T04:12:46;7.75;7.75;6.50
71794;PMS7003;59641;45.188;5.712;2024-02-21T04:15:15;8.00;7.25;6.25
71794;PMS7003;59641;45.188;5.712;2024-02-21T04:17:41;9.25;9.00;7.00
71794;PMS7003;59641;45.188;5.712;2024-02-21T04:20:06;11.25;11.00;7.00
71794;PMS7003;59641;45.188;5.712;2024-02-21T04:22:38;9.75;9.75;6.75
71794;PMS7003;59641;45.188;5.712;2024-02-21T04:25:03;10.00;9.00;7.00
71794;PMS7003;59641;45.188;5.712;2024-02-21T04:27:29;9.50;9.50;6.50
71794;PMS7003;59641;45.188;5.712;2024-02-21T04:29:54;7.75;7.50;7.00
71794;PMS7003;59641;45.188;5.712;2024-02-21T04:32:20;7.00;6.50;6.00
71794;PMS7003;59641;45.188;5.712;2024-02-21T04:34:45;6.75;6.75;5.25
71794;PMS7003;59641;45.188;5.712;2024-02-21T04:37:10;5.25;5.25;4.00
71794;PMS7003;59641;45.188;5.712;2024-02-21T04:39:36;10.00;10.00;7.25
71794;PMS7003;59641;45.188;5.712;2024-02-21T04:42:01;10.00;10.00;7.75
71794;PMS7003;59641;45.188;5.712;2024-02-21T04:44:26;8.00;8.00;7.00
71794;PMS7003;59641;45.188;5.712;2024-02-21T04:46:51;7.25;7.25;6.00
71794;PMS7003;59641;45.188;5.712;2024-02-21T04:49:17;11.25;10.00;6.75
71794;PMS7003;59641;45.188;5.712;2024-02-21T04:51:42;9.00;9.00;7.50
71794;PMS7003;59641;45.188;5.712;2024-02-21T04:54:08;10.25;9.75;7.00
71794;PMS7003;59641;45.188;5.712;2024-02-21T04:56:34;8.50;8.00;7.00
71794;PMS7003;59641;45.188;5.712;2024-02-21T04:58:59;9.50;8.75;5.50
71794;PMS7003;59641;45.188;5.712;2024-02-21T05:01:24;9.50;9.50;6.00
71794;PMS7003;59641;45.188;5.712;2024-02-21T05:03:50;10.00;8.50;6.50
71794;PMS7003;59641;45.188;5.712;2024-02-21T05:06:15;7.50;7.00;5.50
71794;PMS7003;59641;45.188;5.712;2024-02-21T05:08:40;7.25;7.25;6.00
71794;PMS7003;59641;45.188;5.712;2024-02-21T05:11:06;5.75;5.25;4.25
71794;PMS7003;59641;45.188;5.712;2024-02-21T05:13:32;7.75;5.75;5.50
71794;PMS7003;59641;45.188;5.712;2024-02-21T05:15:57;7.75;6.75;5.25
71794;PMS7003;59641;45.188;5.712;2024-02-21T05:18:26;7.25;7.00;6.00
71794;PMS7003;59641;45.188;5.712;2024-02-21T05:20:51;8.75;8.75;6.25
71794;PMS7003;59641;45.188;5.712;2024-02-21T05:23:17;10.75;8.00;7.00
71794;PMS7003;59641;45.188;5.712;2024-02-21T05:25:42;7.25;7.25;6.50
71794;PMS7003;59641;45.188;5.712;2024-02-21T05:28:07;9.00;8.50;6.75
71794;PMS7003;59641;45.188;5.712;2024-02-21T05:30:33;9.50;8.00;7.00
71794;PMS7003;59641;45.188;5.712;2024-02-21T05:32:58;10.25;9.75;8.00
71794;PMS7003;59641;45.188;5.712;2024-02-21T05:35:27;11.50;10.00;7.00
71794;PMS7003;59641;45.188;5.712;2024-02-21T05:37:53;10.60;9.60;7.60
71794;PMS7003;59641;45.188;5.712;2024-02-21T05:40:19;8.75;8.75;7.00
71794;PMS7003;59641;45.188;5.712;2024-02-21T05:42:44;8.00;8.00;7.00
71794;PMS7003;59641;45.188;5.712;2024-02-21T05:45:09;9.25;9.00;7.25
71794;PMS7003;59641;45.188;5.712;2024-02-21T05:47:35;13.00;13.00;10.00
71794;PMS7003;59641;45.188;5.712;2024-02-21T05:50:00;14.75;12.00;9.00
71794;PMS7003;59641;45.188;5.712;2024-02-21T05:52:25;13.00;11.75;8.00
71794;PMS7003;59641;45.188;5.712;2024-02-21T05:54:51;14.25;14.25;11.00
71794;PMS7003;59641;45.188;5.712;2024-02-21T05:57:17;15.75;13.25;9.25
71794;PMS7003;59641;45.188;5.712;2024-02-21T05:59:43;10.50;10.00;7.00
71794;PMS7003;59641;45.188;5.712;2024-02-21T06:02:08;10.00;9.75;8.00
71794;PMS7003;59641;45.188;5.712;2024-02-21T06:04:34;9.25;8.75;7.00
71794;PMS7003;59641;45.188;5.712;2024-02-21T06:07:00;11.25;11.25;9.25
71794;PMS7003;59641;45.188;5.712;2024-02-21T06:09:25;8.00;8.00;6.50
71794;PMS7003;59641;45.188;5.712;2024-02-21T06:11:50;9.00;9.00;7.25
71794;PMS7003;59641;45.188;5.712;2024-02-21T06:14:16;7.50;7.50;5.75
71794;PMS7003;59641;45.188;5.712;2024-02-21T06:16:42;8.00;8.00;7.00
71794;PMS7003;59641;45.188;5.712;2024-02-21T06:19:08;10.50;10.25;7.25
71794;PMS7003;59641;45.188;5.712;2024-02-21T06:21:34;14.00;12.50;8.00
71794;PMS7003;59641;45.188;5.712;2024-02-21T06:23:59;7.75;7.50;5.25
71794;PMS7003;59641;45.188;5.712;2024-02-21T06:26:24;9.00;8.75;7.50
71794;PMS7003;59641;45.188;5.712;2024-02-21T06:28:50;10.25;10.00;8.00
71794;PMS7003;59641;45.188;5.712;2024-02-21T06:31:15;7.50;7.50;6.00
71794;PMS7003;59641;45.188;5.712;2024-02-21T06:33:41;11.00;9.50;8.25
71794;PMS7003;59641;45.188;5.712;2024-02-21T06:36:06;10.50;9.75;7.00
71794;PMS7003;59641;45.188;5.712;2024-02-21T06:38:32;11.25;11.00;8.00
71794;PMS7003;59641;45.188;5.712;2024-02-21T06:40:59;13.50;9.75;7.25
71794;PMS7003;59641;45.188;5.712;2024-02-21T06:43:25;8.50;7.00;5.00
71794;PMS7003;59641;45.188;5.712;2024-02-21T06:45:51;8.00;8.00;7.00
71794;PMS7003;59641;45.188;5.712;2024-02-21T06:48:16;8.00;7.00;5.50
71794;PMS7003;59641;45.188;5.712;2024-02-21T06:50:45;6.75;6.75;5.00
71794;PMS7003;59641;45.188;5.712;2024-02-21T06:53:10;6.00;6.00;4.50
71794;PMS7003;59641;45.188;5.712;2024-02-21T06:55:35;8.50;6.75;4.75
71794;PMS7003;59641;45.188;5.712;2024-02-21T06:58:01;10.25;10.00;7.00
71794;PMS7003;59641;45.188;5.712;2024-02-21T07:00:27;10.50;8.00;6.50
71794;PMS7003;59641;45.188;5.712;2024-02-21T07:02:53;11.40;11.40;8.80
71794;PMS7003;59641;45.188;5.712;2024-02-21T07:05:19;9.25;9.25;7.00
71794;PMS7003;59641;45.188;5.712;2024-02-21T07:07:44;6.00;6.00;5.00
71794;PMS7003;59641;45.188;5.712;2024-02-21T07:10:09;10.00;9.75;8.25
71794;PMS7003;59641;45.188;5.712;2024-02-21T07:12:35;9.00;9.00;7.00
71794;PMS7003;59641;45.188;5.712;2024-02-21T07:15:03;11.00;10.80;8.20
71794;PMS7003;59641;45.188;5.712;2024-02-21T07:17:29;12.25;9.00;7.50
71794;PMS7003;59641;45.188;5.712;2024-02-21T07:19:55;9.25;8.50;6.00
71794;PMS7003;59641;45.188;5.712;2024-02-21T07:22:21;11.75;11.00;9.00
71794;PMS7003;59641;45.188;5.712;2024-02-21T07:24:47;12.50;12.00;8.50
71794;PMS7003;59641;45.188;5.712;2024-02-21T07:27:14;11.25;10.25;9.00
71794;PMS7003;59641;45.188;5.712;2024-02-21T07:29:40;13.75;11.50;10.25
71794;PMS7003;59641;45.188;5.712;2024-02-21T07:32:06;13.75;12.00;9.00
71794;PMS7003;59641;45.188;5.712;2024-02-21T07:34:31;15.00;13.00;10.00
71794;PMS7003;59641;45.188;5.712;2024-02-21T07:36:57;14.75;14.00;11.50
71794;PMS7003;59641;45.188;5.712;2024-02-21T07:39:22;13.75;12.75;9.25
71794;PMS7003;59641;45.188;5.712;2024-02-21T07:41:48;11.75;10.75;9.00
71794;PMS7003;59641;45.188;5.712;2024-02-21T07:44:14;10.75;10.25;9.00
71794;PMS7003;59641;45.188;5.712;2024-02-21T07:46:42;12.00;11.00;9.00
71794;PMS7003;59641;45.188;5.712;2024-02-21T07:49:07;16.00;15.25;10.00
71794;PMS7003;59641;45.188;5.712;2024-02-21T07:51:33;14.00;12.75;10.00
71794;PMS7003;59641;45.188;5.712;2024-02-21T07:54:00;15.50;13.50;11.00
71794;PMS7003;59641;45.188;5.712;2024-02-21T07:56:27;14.75;11.75;9.00
71794;PMS7003;59641;45.188;5.712;2024-02-21T07:58:53;13.75;12.50;11.25
71794;PMS7003;59641;45.188;5.712;2024-02-21T08:01:19;12.00;11.00;9.00
71794;PMS7003;59641;45.188;5.712;2024-02-21T08:03:47;10.75;10.00;7.25
71794;PMS7003;59641;45.188;5.712;2024-02-21T08:06:12;11.25;11.00;8.00
71794;PMS7003;59641;45.188;5.712;2024-02-21T08:08:38;9.50;9.50;8.75
71794;PMS7003;59641;45.188;5.712;2024-02-21T08:11:04;9.75;9.75;8.00
71794;PMS7003;59641;45.188;5.712;2024-02-21T08:13:29;13.25;11.00;9.00
71794;PMS7003;59641;45.188;5.712;2024-02-21T08:15:55;13.75;13.25;10.00
71794;PMS7003;59641;45.188;5.712;2024-02-21T08:18:20;12.75;11.75;9.00
71794;PMS7003;59641;45.188;5.712;2024-02-21T08:20:45;11.75;11.00;9.00
71794;PMS7003;59641;45.188;5.712;2024-02-21T08:23:11;9.75;8.25;6.00
71794;PMS7003;59641;45.188;5.712;2024-02-21T08:25:36;9.50;9.50;8.00
71794;PMS7003;59641;45.188;5.712;2024-02-21T08:28:01;10.00;9.00;6.25
71794;PMS7003;59641;45.188;5.712;2024-02-21T08:30:27;10.75;9.00;7.50
71794;PMS7003;59641;45.188;5.712;2024-02-21T08:32:52;9.75;9.75;7.50
71794;PMS7003;59641;45.188;5.712;2024-02-21T08:35:19;14.00;9.75;7.75
71794;PMS7003;59641;45.188;5.712;2024-02-21T08:37:45;10.75;10.50;7.75
71794;PMS7003;59641;45.188;5.712;2024-02-21T08:40:13;12.00;12.00;9.75
71794;PMS7003;59641;45.188;5.712;2024-02-21T08:42:38;11.50;10.00;7.75
71794;PMS7003;59641;45.188;5.712;2024-02-21T08:45:04;11.25;10.75;8.00
71794;PMS7003;59641;45.188;5.712;2024-02-21T08:47:30;10.50;9.00;8.00
71794;PMS7003;59641;45.188;5.712;2024-02-21T08:49:55;11.75;8.25;7.00
71794;PMS7003;59641;45.188;5.712;2024-02-21T08:52:21;11.00;10.50;8.00
71794;PMS7003;59641;45.188;5.712;2024-02-21T08:54:46;8.00;8.00;7.00
71794;PMS7003;59641;45.188;5.712;2024-02-21T08:57:11;9.25;9.00;6.75
71794;PMS7003;59641;45.188;5.712;2024-02-21T08:59:38;10.25;10.25;8.25
71794;PMS7003;59641;45.188;5.712;2024-02-21T09:02:04;11.00;9.75;8.00
71794;PMS7003;59641;45.188;5.712;2024-02-21T09:04:29;10.00;9.00;7.50
71794;PMS7003;59641;45.188;5.712;2024-02-21T09:06:55;9.00;8.75;6.75
71794;PMS7003;59641;45.188;5.712;2024-02-21T09:09:21;9.50;8.25;6.75
71794;PMS7003;59641;45.188;5.712;2024-02-21T09:11:46;10.00;10.00;8.00
71794;PMS7003;59641;45.188;5.712;2024-02-21T09:14:12;10.00;8.00;7.00
71794;PMS7003;59641;45.188;5.712;2024-02-21T09:16:37;10.75;9.50;6.00
71794;PMS7003;59641;45.188;5.712;2024-02-21T09:19:02;9.75;9.75;8.00
71794;PMS7003;59641;45.188;5.712;2024-02-21T09:21:28;13.00;10.25;8.00
71794;PMS7003;59641;45.188;5.712;2024-02-21T09:23:53;10.25;9.00;7.75
71794;PMS7003;59641;45.188;5.712;2024-02-21T09:26:19;10.00;10.00;8.00
71794;PMS7003;59641;45.188;5.712;2024-02-21T09:28:44;8.75;7.00;5.75
71794;PMS7003;59641;45.188;5.712;2024-02-21T09:31:10;7.75;7.75;6.00
71794;PMS7003;59641;45.188;5.712;2024-02-21T09:33:35;6.25;6.00;5.00
71794;PMS7003;59641;45.188;5.712;2024-02-21T09:36:02;9.50;9.00;7.00
71794;PMS7003;59641;45.188;5.712;2024-02-21T09:38:27;8.00;8.00;6.50
71794;PMS7003;59641;45.188;5.712;2024-02-21T09:41:14;7.75;7.00;6.00
71794;PMS7003;59641;45.188;5.712;2024-02-21T09:43:44;8.00;6.75;6.00
71794;PMS7003;59641;45.188;5.712;2024-02-21T09:46:16;9.00;7.00;6.00
71794;PMS7003;59641;45.188;5.712;2024-02-21T09:48:52;7.80;7.00;5.00
71794;PMS7003;59641;45.188;5.712;2024-02-21T09:51:30;8.00;6.00;5.00
71794;PMS7003;59641;45.188;5.712;2024-02-21T09:53:59;6.00;3.50;3.00
71794;PMS7003;59641;45.188;5.712;2024-02-21T09:56:25;10.00;9.25;8.00
71794;PMS7003;59641;45.188;5.712;2024-02-21T09:58:50;11.00;11.00;7.00
71794;PMS7003;59641;45.188;5.712;2024-02-21T10:01:15;7.75;7.75;6.25
71794;PMS7003;59641;45.188;5.712;2024-02-21T10:03:41;6.75;6.50;6.00
71794;PMS7003;59641;45.188;5.712;2024-02-21T10:06:08;8.00;8.00;6.00
71794;PMS7003;59641;45.188;5.712;2024-02-21T10:08:34;9.75;7.00;5.50
71794;PMS7003;59641;45.188;5.712;2024-02-21T10:10:59;6.50;6.50;5.25
71794;PMS7003;59641;45.188;5.712;2024-02-21T10:13:26;5.50;5.00;4.00
71794;PMS7003;59641;45.188;5.712;2024-02-21T10:16:05;7.25;7.00;5.75
71794;PMS7003;59641;45.188;5.712;2024-02-21T10:18:32;5.60;5.60;4.00
71794;PMS7003;59641;45.188;5.712;2024-02-21T10:21:02;6.80;6.00;5.60
71794;PMS7003;59641;45.188;5.712;2024-02-21T10:23:47;8.00;8.00;5.50
71794;PMS7003;59641;45.188;5.712;2024-02-21T10:26:14;7.50;7.25;5.75
71794;PMS7003;59641;45.188;5.712;2024-02-21T10:28:42;6.00;6.00;5.00
71794;PMS7003;59641;45.188;5.712;2024-02-21T10:31:10;5.40;5.40;4.80
71794;PMS7003;59641;45.188;5.712;2024-02-21T10:33:36;7.00;7.00;5.25
71794;PMS7003;59641;45.188;5.712;2024-02-21T10:36:08;8.50;8.50;6.50
71794;PMS7003;59641;45.188;5.712;2024-02-21T10:38:38;7.80;7.20;5.80
71794;PMS7003;59641;45.188;5.712;2024-02-21T10:41:06;9.80;8.20;6.80
71794;PMS7003;59641;45.188;5.712;2024-02-21T10:43:37;9.75;8.00;6.25
71794;PMS7003;59641;45.188;5.712;2024-02-21T10:46:07;9.60;7.80;5.60
71794;PMS7003;59641;45.188;5.712;2024-02-21T10:48:44;9.40;8.60;6.20
71794;PMS7003;59641;45.188;5.712;2024-02-21T10:51:17;5.20;4.80;3.80
71794;PMS7003;59641;45.188;5.712;2024-02-21T10:53:45;7.00;6.00;5.00
71794;PMS7003;59641;45.188;5.712;2024-02-21T10:56:22;7.00;7.00;6.00
71794;PMS7003;59641;45.188;5.712;2024-02-21T10:58:50;8.60;8.60;6.40
71794;PMS7003;59641;45.188;5.712;2024-02-21T11:01:17;6.25;6.25;5.75
71794;PMS7003;59641;45.188;5.712;2024-02-21T11:03:44;6.75;6.50;5.75
71794;PMS7003;59641;45.188;5.712;2024-02-21T11:06:11;7.00;6.00;5.00
71794;PMS7003;59641;45.188;5.712;2024-02-21T11:08:38;9.25;7.50;5.00
71794;PMS7003;59641;45.188;5.712;2024-02-21T11:11:04;9.75;9.00;7.00
71794;PMS7003;59641;45.188;5.712;2024-02-21T11:13:36;6.00;5.50;4.75
71794;PMS7003;59641;45.188;5.712;2024-02-21T11:16:06;5.50;5.50;4.00
71794;PMS7003;59641;45.188;5.712;2024-02-21T11:18:34;6.80;6.60;4.60
71794;PMS7003;59641;45.188;5.712;2024-02-21T11:20:59;7.50;6.25;4.50
71794;PMS7003;59641;45.188;5.712;2024-02-21T11:23:25;4.25;4.25;4.25
71794;PMS7003;59641;45.188;5.712;2024-02-21T11:25:51;5.60;5.60;4.20
71794;PMS7003;59641;45.188;5.712;2024-02-21T11:28:17;5.50;5.50;5.00
71794;PMS7003;59641;45.188;5.712;2024-02-21T11:30:50;5.20;5.20;4.80
71794;PMS7003;59641;45.188;5.712;2024-02-21T11:33:16;5.75;5.75;5.00
71794;PMS7003;59641;45.188;5.712;2024-02-21T11:35:42;11.00;9.00;6.50
71794;PMS7003;59641;45.188;5.712;2024-02-21T11:38:08;8.50;7.75;5.75
71794;PMS7003;59641;45.188;5.712;2024-02-21T11:40:35;6.75;6.50;5.50
71794;PMS7003;59641;45.188;5.712;2024-02-21T11:43:00;9.50;8.75;6.25
71794;PMS7003;59641;45.188;5.712;2024-02-21T11:45:25;8.25;7.00;5.00
71794;PMS7003;59641;45.188;5.712;2024-02-21T11:47:52;6.00;6.00;5.40
71794;PMS7003;59641;45.188;5.712;2024-02-21T11:50:17;9.00;6.50;5.50
71794;PMS7003;59641;45.188;5.712;2024-02-21T11:52:44;5.00;5.00;4.00
71794;PMS7003;59641;45.188;5.712;2024-02-21T11:55:10;7.00;7.00;5.25
71794;PMS7003;59641;45.188;5.712;2024-02-21T11:57:37;10.75;8.00;5.50
71794;PMS7003;59641;45.188;5.712;2024-02-21T12:00:20;10.00;8.25;7.25
71794;PMS7003;59641;45.188;5.712;2024-02-21T12:02:45;7.50;7.25;5.50
71794;PMS7003;59641;45.188;5.712;2024-02-21T12:05:11;7.50;7.50;6.00
71794;PMS7003;59641;45.188;5.712;2024-02-21T12:07:37;8.25;8.25;5.25
71794;PMS7003;59641;45.188;5.712;2024-02-21T12:10:09;7.00;7.00;6.20
71794;PMS7003;59641;45.188;5.712;2024-02-21T12:12:36;13.75;10.75;7.00
71794;PMS7003;59641;45.188;5.712;2024-02-21T12:15:03;10.50;9.75;7.25
71794;PMS7003;59641;45.188;5.712;2024-02-21T12:17:29;7.60;7.00;5.20
71794;PMS7003;59641;45.188;5.712;2024-02-21T12:20:04;9.00;6.80;4.80
71794;PMS7003;59641;45.188;5.712;2024-02-21T12:22:33;5.20;5.20;4.00
71794;PMS7003;59641;45.188;5.712;2024-02-21T12:25:02;5.40;5.00;4.20
71794;PMS7003;59641;45.188;5.712;2024-02-21T12:27:29;6.80;4.60;3.60
71794;PMS7003;59641;45.188;5.712;2024-02-21T12:29:54;5.75;5.25;4.75
71794;PMS7003;59641;45.188;5.712;2024-02-21T12:32:20;6.25;6.25;4.50
71794;PMS7003;59641;45.188;5.712;2024-02-21T12:34:45;5.75;5.50;4.25
71794;PMS7003;59641;45.188;5.712;2024-02-21T12:37:11;6.00;5.00;4.00
71794;PMS7003;59641;45.188;5.712;2024-02-21T12:39:38;6.00;6.00;4.00
71794;PMS7003;59641;45.188;5.712;2024-02-21T12:42:03;4.00;4.00;3.00
71794;PMS7003;59641;45.188;5.712;2024-02-21T12:44:29;7.00;3.50;2.50
71794;PMS7003;59641;45.188;5.712;2024-02-21T12:46:54;5.75;5.00;3.00
71794;PMS7003;59641;45.188;5.712;2024-02-21T12:49:20;6.00;4.25;3.00
71794;PMS7003;59641;45.188;5.712;2024-02-21T12:51:45;3.25;3.00;3.00
71794;PMS7003;59641;45.188;5.712;2024-02-21T12:54:13;3.60;3.20;2.20
71794;PMS7003;59641;45.188;5.712;2024-02-21T12:56:38;5.00;4.00;3.00
71794;PMS7003;59641;45.188;5.712;2024-02-21T12:59:05;3.40;3.00;2.00
71794;PMS7003;59641;45.188;5.712;2024-02-21T13:01:34;3.80;3.80;2.40
71794;PMS7003;59641;45.188;5.712;2024-02-21T13:04:00;4.00;4.00;2.80
71794;PMS7003;59641;45.188;5.712;2024-02-21T13:06:26;4.00;4.00;3.00
71794;PMS7003;59641;45.188;5.712;2024-02-21T13:08:51;3.25;3.25;2.50
71794;PMS7003;59641;45.188;5.712;2024-02-21T13:11:16;2.00;2.00;2.00
71794;PMS7003;59641;45.188;5.712;2024-02-21T13:13:42;4.00;3.50;3.00
71794;PMS7003;59641;45.188;5.712;2024-02-21T13:16:07;6.50;6.50;3.50
71794;PMS7003;59641;45.188;5.712;2024-02-21T13:18:34;4.00;4.00;3.00
71794;PMS7003;59641;45.188;5.712;2024-02-21T13:21:00;4.00;4.00;2.60
71794;PMS7003;59641;45.188;5.712;2024-02-21T13:23:25;5.00;5.00;3.75
71794;PMS7003;59641;45.188;5.712;2024-02-21T13:25:51;4.00;4.00;3.50
71794;PMS7003;59641;45.188;5.712;2024-02-21T13:28:16;4.00;4.00;3.00
71794;PMS7003;59641;45.188;5.712;2024-02-21T13:30:42;4.75;4.50;3.00
71794;PMS7003;59641;45.188;5.712;2024-02-21T13:33:08;4.40;4.40;3.60
71794;PMS7003;59641;45.188;5.712;2024-02-21T13:35:34;4.20;4.20;3.20
71794;PMS7003;59641;45.188;5.712;2024-02-21T13:38:01;3.00;3.00;2.80
71794;PMS7003;59641;45.188;5.712;2024-02-21T13:40:28;4.00;4.00;3.20
71794;PMS7003;59641;45.188;5.712;2024-02-21T13:42:53;2.75;2.75;2.75
71794;PMS7003;59641;45.188;5.712;2024-02-21T13:45:19;2.50;2.00;1.00
71794;PMS7003;59641;45.188;5.712;2024-02-21T13:47:44;3.00;3.00;1.00
71794;PMS7003;59641;45.188;5.712;2024-02-21T13:50:10;1.25;1.25;1.25
71794;PMS7003;59641;45.188;5.712;2024-02-21T13:52:40;2.80;2.80;2.00
71794;PMS7003;59641;45.188;5.712;2024-02-21T13:55:05;2.80;2.80;2.00
71794;PMS7003;59641;45.188;5.712;2024-02-21T13:57:36;4.20;2.60;2.00
71794;PMS7003;59641;45.188;5.712;2024-02-21T14:00:02;3.20;3.00;2.20
71794;PMS7003;59641;45.188;5.712;2024-02-21T14:02:29;1.20;1.20;1.20
71794;PMS7003;59641;45.188;5.712;2024-02-21T14:04:54;3.75;3.25;2.00
71794;PMS7003;59641;45.188;5.712;2024-02-21T14:07:20;3.00;3.00;2.75
71794;PMS7003;59641;45.188;5.712;2024-02-21T14:09:45;4.00;2.75;1.25
71794;PMS7003;59641;45.188;5.712;2024-02-21T14:12:11;3.00;3.00;2.00
71794;PMS7003;59641;45.188;5.712;2024-02-21T14:14:37;3.00;3.00;2.25